sensor_id;sensor_type;location;lat;lon;timestamp;temperature;humidity
12233;DHT22;6179;51.748;8.728;2023-03-15T00:05:46;2.30;94.90
12233;DHT22;6179;51.748;8.728;2023-03-15T00:11:48;2.30;94.60
12233;DHT22;6179;51.748;8.728;2023-03-15T00:17:49;2.20;95.40
12233;DHT22;6179;51.748;8.728;2023-03-15T00:23:50;2.20;94.90
12233;DHT22;6179;51.748;8.728;2023-03-15T00:29:50;2.50;94.40
12233;DHT22;6179;51.748;8.728;2023-03-15T00:35:51;2.80;93.80
12233;DHT22;6179;51.748;8.728;2023-03-15T00:41:53;3.00;92.80
12233;DHT22;6179;51.748;8.728;2023-03-15T00:47:56;3.10;92.50
12233;DHT22;6179;51.748;8.728;2023-03-15T00:53:57;3.40;91.70
12233;DHT22;6179;51.748;8.728;2023-03-15T00:59:58;3.20;92.30
12233;DHT22;6179;51.748;8.728;2023-03-15T01:06:13;3.10;92.70
12233;DHT22;6179;51.748;8.728;2023-03-15T01:12:16;3.30;92.40
12233;DHT22;6179;51.748;8.728;2023-03-15T01:18:16;3.20;92.90
12233;DHT22;6179;51.748;8.728;2023-03-15T01:24:17;3.20;93.00
12233;DHT22;6179;51.748;8.728;2023-03-15T01:30:18;3.40;92.50
12233;DHT22;6179;51.748;8.728;2023-03-15T01:36:19;3.20;95.20
12233;DHT22;6179;51.748;8.728;2023-03-15T01:42:20;2.60;98.30
12233;DHT22;6179;51.748;8.728;2023-03-15T01:48:24;2.30;98.30
12233;DHT22;6179;51.748;8.728;2023-03-15T01:54:40;2.10;98.30
12233;DHT22;6179;51.748;8.728;2023-03-15T02:00:45;1.90;98.30
12233;DHT22;6179;51.748;8.728;2023-03-15T02:06:47;1.80;98.30
12233;DHT22;6179;51.748;8.728;2023-03-15T02:12:51;1.90;98.30
12233;DHT22;6179;51.748;8.728;2023-03-15T02:18:53;1.50;98.30
12233;DHT22;6179;51.748;8.728;2023-03-15T02:31:50;1.70;98.30
12233;DHT22;6179;51.748;8.728;2023-03-15T02:37:52;1.80;98.30
12233;DHT22;6179;51.748;8.728;2023-03-15T02:43:58;1.40;98.30
12233;DHT22;6179;51.748;8.728;2023-03-15T02:50:03;1.20;98.30
12233;DHT22;6179;51.748;8.728;2023-03-15T02:56:05;1.30;98.30
12233;DHT22;6179;51.748;8.728;2023-03-15T03:02:06;1.40;98.30
12233;DHT22;6179;51.748;8.728;2023-03-15T03:08:07;1.50;98.30
12233;DHT22;6179;51.748;8.728;2023-03-15T03:14:08;1.10;98.30
12233;DHT22;6179;51.748;8.728;2023-03-15T03:20:10;1.30;98.30
12233;DHT22;6179;51.748;8.728;2023-03-15T03:26:15;1.20;98.30
12233;DHT22;6179;51.748;8.728;2023-03-15T03:32:18;1.60;98.30
12233;DHT22;6179;51.748;8.728;2023-03-15T03:38:19;1.90;98.30
12233;DHT22;6179;51.748;8.728;2023-03-15T03:44:19;1.60;98.30
12233;DHT22;6179;51.748;8.728;2023-03-15T03:50:20;1.60;98.30
12233;DHT22;6179;51.748;8.728;2023-03-15T03:56:21;1.70;98.30
12233;DHT22;6179;51.748;8.728;2023-03-15T04:02:22;1.90;98.30
12233;DHT22;6179;51.748;8.728;2023-03-15T04:08:23;1.90;98.30
12233;DHT22;6179;51.748;8.728;2023-03-15T04:14:26;2.00;98.30
12233;DHT22;6179;51.748;8.728;2023-03-15T04:20:27;2.20;98.30
12233;DHT22;6179;51.748;8.728;2023-03-15T04:26:28;2.00;98.30
12233;DHT22;6179;51.748;8.728;2023-03-15T04:32:29;2.10;98.30
12233;DHT22;6179;51.748;8.728;2023-03-15T04:38:30;2.20;98.30
12233;DHT22;6179;51.748;8.728;2023-03-15T04:44:31;2.40;98.30
12233;DHT22;6179;51.748;8.728;2023-03-15T04:50:32;2.00;98.30
12233;DHT22;6179;51.748;8.728;2023-03-15T04:56:33;2.20;98.30
12233;DHT22;6179;51.748;8.728;2023-03-15T05:02:35;2.00;98.30
12233;DHT22;6179;51.748;8.728;2023-03-15T05:08:39;2.30;98.30
12233;DHT22;6179;51.748;8.728;2023-03-15T05:14:40;2.20;98.30
12233;DHT22;6179;51.748;8.728;2023-03-15T05:20:40;2.10;98.30
12233;DHT22;6179;51.748;8.728;2023-03-15T05:26:41;2.20;98.30
12233;DHT22;6179;51.748;8.728;2023-03-15T05:32:45;2.90;98.30
12233;DHT22;6179;51.748;8.728;2023-03-15T05:38:46;2.90;98.30
12233;DHT22;6179;51.748;8.728;2023-03-15T05:44:47;2.80;98.30
12233;DHT22;6179;51.748;8.728;2023-03-15T05:50:48;2.40;98.30
12233;DHT22;6179;51.748;8.728;2023-03-15T05:56:49;2.30;98.30
12233;DHT22;6179;51.748;8.728;2023-03-15T06:02:50;2.20;98.30
12233;DHT22;6179;51.748;8.728;2023-03-15T06:08:51;2.40;98.30
12233;DHT22;6179;51.748;8.728;2023-03-15T06:14:52;2.40;98.30
12233;DHT22;6179;51.748;8.728;2023-03-15T06:20:53;2.50;98.30
12233;DHT22;6179;51.748;8.728;2023-03-15T06:26:53;3.10;98.30
12233;DHT22;6179;51.748;8.728;2023-03-15T06:32:55;3.00;98.30
12233;DHT22;6179;51.748;8.728;2023-03-15T06:38:56;3.40;98.30
12233;DHT22;6179;51.748;8.728;2023-03-15T06:44:57;3.30;98.30
12233;DHT22;6179;51.748;8.728;2023-03-15T06:50:58;3.00;98.30
12233;DHT22;6179;51.748;8.728;2023-03-15T06:56:59;2.80;98.30
12233;DHT22;6179;51.748;8.728;2023-03-15T07:03:00;2.90;98.30
12233;DHT22;6179;51.748;8.728;2023-03-15T07:09:02;3.00;98.30
12233;DHT22;6179;51.748;8.728;2023-03-15T07:15:03;2.90;98.30
12233;DHT22;6179;51.748;8.728;2023-03-15T07:21:04;2.70;98.30
12233;DHT22;6179;51.748;8.728;2023-03-15T07:27:11;2.90;98.30
12233;DHT22;6179;51.748;8.728;2023-03-15T07:33:12;2.90;98.30
12233;DHT22;6179;51.748;8.728;2023-03-15T07:39:13;3.00;98.30
12233;DHT22;6179;51.748;8.728;2023-03-15T07:45:15;2.90;98.30
12233;DHT22;6179;51.748;8.728;2023-03-15T07:51:16;2.90;98.30
12233;DHT22;6179;51.748;8.728;2023-03-15T07:57:17;2.80;98.30
12233;DHT22;6179;51.748;8.728;2023-03-15T08:03:17;2.80;98.30
12233;DHT22;6179;51.748;8.728;2023-03-15T08:09:18;2.90;98.30
12233;DHT22;6179;51.748;8.728;2023-03-15T08:15:19;3.00;98.30
12233;DHT22;6179;51.748;8.728;2023-03-15T08:21:20;3.40;98.30
12233;DHT22;6179;51.748;8.728;2023-03-15T08:27:21;3.60;98.30
12233;DHT22;6179;51.748;8.728;2023-03-15T08:33:23;4.10;98.30
12233;DHT22;6179;51.748;8.728;2023-03-15T08:39:24;4.20;98.30
12233;DHT22;6179;51.748;8.728;2023-03-15T08:45:25;3.80;98.30
12233;DHT22;6179;51.748;8.728;2023-03-15T08:51:29;4.00;98.30
12233;DHT22;6179;51.748;8.728;2023-03-15T08:57:30;4.20;98.30
12233;DHT22;6179;51.748;8.728;2023-03-15T09:03:32;4.60;98.30
12233;DHT22;6179;51.748;8.728;2023-03-15T09:09:33;4.80;98.30
12233;DHT22;6179;51.748;8.728;2023-03-15T09:15:34;5.00;95.50
12233;DHT22;6179;51.748;8.728;2023-03-15T09:21:35;5.20;95.90
12233;DHT22;6179;51.748;8.728;2023-03-15T09:27:36;5.40;97.80
12233;DHT22;6179;51.748;8.728;2023-03-15T09:33:37;5.30;96.40
12233;DHT22;6179;51.748;8.728;2023-03-15T09:39:38;4.60;98.30
12233;DHT22;6179;51.748;8.728;2023-03-15T09:52:39;4.00;98.30
12233;DHT22;6179;51.748;8.728;2023-03-15T09:58:43;4.70;98.30
12233;DHT22;6179;51.748;8.728;2023-03-15T10:04:46;5.20;96.50
12233;DHT22;6179;51.748;8.728;2023-03-15T10:24:36;5.00;94.50
12233;DHT22;6179;51.748;8.728;2023-03-15T10:30:48;5.80;91.70
12233;DHT22;6179;51.748;8.728;2023-03-15T10:36:50;5.30;93.60
12233;DHT22;6179;51.748;8.728;2023-03-15T10:42:56;5.90;91.90
12233;DHT22;6179;51.748;8.728;2023-03-15T10:48:59;6.10;91.30
12233;DHT22;6179;51.748;8.728;2023-03-15T10:55:14;5.60;91.40
12233;DHT22;6179;51.748;8.728;2023-03-15T11:01:27;5.40;91.30
12233;DHT22;6179;51.748;8.728;2023-03-15T11:07:34;5.90;89.50
12233;DHT22;6179;51.748;8.728;2023-03-15T11:13:38;5.70;88.90
12233;DHT22;6179;51.748;8.728;2023-03-15T11:19:41;6.40;86.00
12233;DHT22;6179;51.748;8.728;2023-03-15T11:25:52;6.10;83.90
12233;DHT22;6179;51.748;8.728;2023-03-15T11:31:55;6.30;84.40
12233;DHT22;6179;51.748;8.728;2023-03-15T11:38:01;6.60;84.60
12233;DHT22;6179;51.748;8.728;2023-03-15T11:44:26;6.80;79.00
12233;DHT22;6179;51.748;8.728;2023-03-15T11:50:52;6.10;79.30
12233;DHT22;6179;51.748;8.728;2023-03-15T11:57:04;6.00;77.70
12233;DHT22;6179;51.748;8.728;2023-03-15T12:03:40;6.00;77.10
12233;DHT22;6179;51.748;8.728;2023-03-15T12:09:52;6.60;76.50
12233;DHT22;6179;51.748;8.728;2023-03-15T12:15:56;6.80;75.50
12233;DHT22;6179;51.748;8.728;2023-03-15T12:21:57;6.20;74.90
12233;DHT22;6179;51.748;8.728;2023-03-15T12:28:01;6.60;76.50
12233;DHT22;6179;51.748;8.728;2023-03-15T12:34:22;6.80;76.10
12233;DHT22;6179;51.748;8.728;2023-03-15T12:40:54;6.70;75.20
12233;DHT22;6179;51.748;8.728;2023-03-15T12:47:00;6.90;73.00
12233;DHT22;6179;51.748;8.728;2023-03-15T12:59:44;6.70;72.20
12233;DHT22;6179;51.748;8.728;2023-03-15T13:11:57;7.90;69.20
12233;DHT22;6179;51.748;8.728;2023-03-15T13:18:21;7.70;71.10
12233;DHT22;6179;51.748;8.728;2023-03-15T13:24:49;7.80;66.40
12233;DHT22;6179;51.748;8.728;2023-03-15T13:30:59;7.60;68.90
12233;DHT22;6179;51.748;8.728;2023-03-15T13:37:00;8.30;69.50
12233;DHT22;6179;51.748;8.728;2023-03-15T13:43:09;8.40;67.00
12233;DHT22;6179;51.748;8.728;2023-03-15T13:49:11;8.00;66.10
12233;DHT22;6179;51.748;8.728;2023-03-15T13:55:20;8.70;65.70
12233;DHT22;6179;51.748;8.728;2023-03-15T14:01:25;8.20;64.10
12233;DHT22;6179;51.748;8.728;2023-03-15T14:07:27;8.50;64.00
12233;DHT22;6179;51.748;8.728;2023-03-15T14:13:45;8.70;63.40
12233;DHT22;6179;51.748;8.728;2023-03-15T14:19:53;8.50;62.30
12233;DHT22;6179;51.748;8.728;2023-03-15T14:26:20;9.30;62.10
12233;DHT22;6179;51.748;8.728;2023-03-15T14:32:50;8.40;59.30
12233;DHT22;6179;51.748;8.728;2023-03-15T14:38:53;8.80;60.90
12233;DHT22;6179;51.748;8.728;2023-03-15T14:44:57;8.80;65.60
12233;DHT22;6179;51.748;8.728;2023-03-15T14:50:58;9.70;61.80
12233;DHT22;6179;51.748;8.728;2023-03-15T14:56:59;8.80;62.70
12233;DHT22;6179;51.748;8.728;2023-03-15T15:03:00;8.60;62.30
12233;DHT22;6179;51.748;8.728;2023-03-15T15:09:03;9.10;62.60
12233;DHT22;6179;51.748;8.728;2023-03-15T15:15:17;9.70;59.90
12233;DHT22;6179;51.748;8.728;2023-03-15T15:21:26;9.40;63.20
12233;DHT22;6179;51.748;8.728;2023-03-15T15:27:29;8.70;68.00
12233;DHT22;6179;51.748;8.728;2023-03-15T15:33:30;8.00;67.20
12233;DHT22;6179;51.748;8.728;2023-03-15T15:39:31;8.10;69.60
12233;DHT22;6179;51.748;8.728;2023-03-15T15:45:31;7.90;70.10
12233;DHT22;6179;51.748;8.728;2023-03-15T15:51:37;8.20;69.20
12233;DHT22;6179;51.748;8.728;2023-03-15T15:57:41;7.90;69.20
12233;DHT22;6179;51.748;8.728;2023-03-15T16:03:43;7.30;71.50
12233;DHT22;6179;51.748;8.728;2023-03-15T16:09:45;7.30;73.10
12233;DHT22;6179;51.748;8.728;2023-03-15T16:15:46;7.30;73.50
12233;DHT22;6179;51.748;8.728;2023-03-15T16:21:49;7.20;74.70
12233;DHT22;6179;51.748;8.728;2023-03-15T16:27:54;7.70;75.60
12233;DHT22;6179;51.748;8.728;2023-03-15T16:33:56;7.40;75.80
12233;DHT22;6179;51.748;8.728;2023-03-15T16:39:59;7.00;76.60
12233;DHT22;6179;51.748;8.728;2023-03-15T16:46:00;6.80;75.90
12233;DHT22;6179;51.748;8.728;2023-03-15T16:52:03;6.80;75.80
12233;DHT22;6179;51.748;8.728;2023-03-15T16:58:17;6.80;76.70
12233;DHT22;6179;51.748;8.728;2023-03-15T17:04:18;6.70;77.80
12233;DHT22;6179;51.748;8.728;2023-03-15T17:16:26;6.80;77.10
12233;DHT22;6179;51.748;8.728;2023-03-15T17:22:27;7.00;75.20
12233;DHT22;6179;51.748;8.728;2023-03-15T17:28:28;6.50;77.00
12233;DHT22;6179;51.748;8.728;2023-03-15T17:34:29;5.90;79.80
12233;DHT22;6179;51.748;8.728;2023-03-15T17:40:34;5.60;80.60
12233;DHT22;6179;51.748;8.728;2023-03-15T17:46:35;5.30;81.90
12233;DHT22;6179;51.748;8.728;2023-03-15T17:52:37;5.20;81.60
12233;DHT22;6179;51.748;8.728;2023-03-15T17:58:39;4.90;84.20
12233;DHT22;6179;51.748;8.728;2023-03-15T18:04:40;4.60;84.60
12233;DHT22;6179;51.748;8.728;2023-03-15T18:10:41;4.40;85.40
12233;DHT22;6179;51.748;8.728;2023-03-15T18:16:42;4.80;83.60
12233;DHT22;6179;51.748;8.728;2023-03-15T18:22:44;4.40;84.70
12233;DHT22;6179;51.748;8.728;2023-03-15T18:28:45;4.20;85.70
12233;DHT22;6179;51.748;8.728;2023-03-15T18:34:48;3.90;86.50
12233;DHT22;6179;51.748;8.728;2023-03-15T18:40:49;4.00;86.60
12233;DHT22;6179;51.748;8.728;2023-03-15T18:46:51;4.10;86.70
12233;DHT22;6179;51.748;8.728;2023-03-15T18:52:53;3.70;88.40
12233;DHT22;6179;51.748;8.728;2023-03-15T18:58:54;3.90;87.50
12233;DHT22;6179;51.748;8.728;2023-03-15T19:04:57;3.90;87.30
12233;DHT22;6179;51.748;8.728;2023-03-15T19:10:59;3.50;89.20
12233;DHT22;6179;51.748;8.728;2023-03-15T19:17:01;3.20;90.30
12233;DHT22;6179;51.748;8.728;2023-03-15T19:23:02;3.00;90.80
12233;DHT22;6179;51.748;8.728;2023-03-15T19:29:03;2.80;91.50
12233;DHT22;6179;51.748;8.728;2023-03-15T19:35:05;2.60;91.70
12233;DHT22;6179;51.748;8.728;2023-03-15T19:41:07;2.50;92.30
12233;DHT22;6179;51.748;8.728;2023-03-15T19:47:09;2.60;92.10
12233;DHT22;6179;51.748;8.728;2023-03-15T19:53:09;2.70;91.80
12233;DHT22;6179;51.748;8.728;2023-03-15T19:59:11;2.60;92.50
12233;DHT22;6179;51.748;8.728;2023-03-15T20:05:14;2.50;93.10
12233;DHT22;6179;51.748;8.728;2023-03-15T20:11:18;2.50;93.50
12233;DHT22;6179;51.748;8.728;2023-03-15T20:17:24;2.10;94.70
12233;DHT22;6179;51.748;8.728;2023-03-15T20:23:26;2.00;95.20
12233;DHT22;6179;51.748;8.728;2023-03-15T20:29:28;1.90;95.10
12233;DHT22;6179;51.748;8.728;2023-03-15T20:35:30;2.00;94.80
12233;DHT22;6179;51.748;8.728;2023-03-15T20:41:31;2.40;93.20
12233;DHT22;6179;51.748;8.728;2023-03-15T20:47:32;2.00;94.50
12233;DHT22;6179;51.748;8.728;2023-03-15T20:53:35;1.60;94.80
12233;DHT22;6179;51.748;8.728;2023-03-15T20:59:36;1.40;95.70
12233;DHT22;6179;51.748;8.728;2023-03-15T21:05:39;1.40;96.10
12233;DHT22;6179;51.748;8.728;2023-03-15T21:11:42;1.50;95.40
12233;DHT22;6179;51.748;8.728;2023-03-15T21:17:44;1.50;94.80
12233;DHT22;6179;51.748;8.728;2023-03-15T21:23:48;1.20;95.40
12233;DHT22;6179;51.748;8.728;2023-03-15T21:29:48;1.00;96.30
12233;DHT22;6179;51.748;8.728;2023-03-15T21:35:50;0.90;96.30
12233;DHT22;6179;51.748;8.728;2023-03-15T21:41:51;0.90;96.00
12233;DHT22;6179;51.748;8.728;2023-03-15T22:05:56;0.70;96.80
12233;DHT22;6179;51.748;8.728;2023-03-15T22:12:00;0.70;96.90
12233;DHT22;6179;51.748;8.728;2023-03-15T22:18:01;0.80;96.40
12233;DHT22;6179;51.748;8.728;2023-03-15T22:24:02;0.60;96.70
12233;DHT22;6179;51.748;8.728;2023-03-15T22:30:04;0.70;96.80
12233;DHT22;6179;51.748;8.728;2023-03-15T22:36:06;0.60;96.80
12233;DHT22;6179;51.748;8.728;2023-03-15T22:42:07;0.50;98.30
12233;DHT22;6179;51.748;8.728;2023-03-15T22:48:08;0.40;98.30
12233;DHT22;6179;51.748;8.728;2023-03-15T22:54:09;0.30;98.30
12233;DHT22;6179;51.748;8.728;2023-03-15T23:00:12;0.30;98.30
12233;DHT22;6179;51.748;8.728;2023-03-15T23:06:16;0.40;98.30
12233;DHT22;6179;51.748;8.728;2023-03-15T23:12:17;0.30;98.30
12233;DHT22;6179;51.748;8.728;2023-03-15T23:18:18;0.30;98.30
12233;DHT22;6179;51.748;8.728;2023-03-15T23:24:19;0.60;98.20
12233;DHT22;6179;51.748;8.728;2023-03-15T23:30:20;0.60;98.30
12233;DHT22;6179;51.748;8.728;2023-03-15T23:36:21;0.60;98.30
12233;DHT22;6179;51.748;8.728;2023-03-15T23:42:22;1.00;97.70
12233;DHT22;6179;51.748;8.728;2023-03-15T23:48:25;1.00;97.80
12233;DHT22;6179;51.748;8.728;2023-03-15T23:54:26;1.00;97.60
